Weather at Napuka Island Airport

Public forecast

Using degrees Celsius for public forecast. Weather courtesy of forecast.io.

Closest aviation weather report (METAR) to Napuka Island Airport

Report is more than 6 hours old.

Closest report is Anaa Airport, 310.6 nm (575.1 km) SW. Retrieved 2020/12/20 03:00 UTC (10 months ago):

NTGA 200300Z 12011KT 9999 FEW020 29/24 Q1005

Closest aviation forecast (TAF) to Napuka Island Airport

Forecast is more than 6 hours old.

Closest forecast is Faa'a International Airport, 522.5 nm (967.6 km) WSW. Retrieved 2021/10/20 18:19 UTC (10 hours ago):

TAF NTAA 201700Z 2018/2124 04013KT 9999 FEW020 BKN080 PROB30 TEMPO 2018/2022 06015G25KT 3000 SHRA SCT018TCU BKN045 BECMG 2020/2022 FEW015CB SCT018 BKN040 PROB40 TEMPO 2022/2113 35015G25KT 3000 TSRA SCT013CB BKN030